Time;durP1;ratioP1;P1;durP2;ratioP2;P2;SDS_P1;SDS_P2;PMS_P1;PMS_P2;Temp;Humidity;BMP_temperature;BMP_pressure;BME280_temperature;BME280_humidity;BME280_pressure;Samples;Min_cycle;Max_cycle;Signal;HPM_P1;HPM_P2
2022/05/06 00:01:51;;;;;;;11.60;9.95;;;;;;;16.55;100.00;96671.94;5059452;28;20493;-61
2022/05/06 00:04:20;;;;;;;10.77;9.73;;;;;;;16.68;100.00;96664.19;5063060;28;20072;-53
2022/05/06 00:06:48;;;;;;;10.88;9.77;;;;;;;16.59;100.00;96668.75;5064112;28;20103;-58
2022/05/06 00:09:16;;;;;;;11.98;9.98;;;;;;;16.84;100.00;96668.59;5059683;28;20060;-59
2022/05/06 00:11:46;;;;;;;14.40;10.02;;;;;;;16.72;100.00;96670.81;5062051;28;20072;-58
2022/05/06 00:14:14;;;;;;;12.50;10.65;;;;;;;16.35;100.00;96676.91;5065817;28;20064;-59
2022/05/06 00:16:42;;;;;;;12.20;11.00;;;;;;;16.46;100.00;96670.34;5064573;28;20468;-58
2022/05/06 00:19:10;;;;;;;12.10;10.50;;;;;;;17.02;100.00;96677.09;5065595;28;20487;-57
2022/05/06 00:21:39;;;;;;;11.00;9.60;;;;;;;17.00;100.00;96671.13;5062452;28;20492;-58
2022/05/06 00:24:07;;;;;;;11.60;9.65;;;;;;;17.50;100.00;96669.66;5064898;28;20075;-58
2022/05/06 00:26:36;;;;;;;10.60;9.55;;;;;;;17.11;100.00;96677.88;5058869;28;20068;-59
2022/05/06 00:29:05;;;;;;;11.25;10.10;;;;;;;17.17;100.00;96677.16;5061711;28;20060;-59
2022/05/06 00:31:34;;;;;;;11.18;10.07;;;;;;;17.15;100.00;96681.00;5063617;28;20797;-55
2022/05/06 00:34:03;;;;;;;12.00;9.90;;;;;;;17.33;100.00;96682.31;5059142;28;20475;-59
2022/05/06 00:36:31;;;;;;;14.95;10.00;;;;;;;17.56;100.00;96679.59;5060664;28;20071;-58
2022/05/06 00:38:59;;;;;;;11.27;10.07;;;;;;;17.35;100.00;96686.66;5062499;28;20071;-59
2022/05/06 00:41:27;;;;;;;7.80;7.10;;;;;;;16.75;100.00;96682.97;5062966;28;20072;-51
2022/05/06 00:43:56;;;;;;;4.82;4.35;;;;;;;16.29;100.00;96680.25;5061886;28;20471;-58
2022/05/06 00:46:25;;;;;;;3.63;3.30;;;;;;;16.34;100.00;96684.06;5061335;28;20080;-59
2022/05/06 00:48:55;;;;;;;3.80;2.63;;;;;;;16.77;100.00;96683.63;5058015;28;20139;-57
2022/05/06 00:51:24;;;;;;;3.13;2.70;;;;;;;16.31;100.00;96679.09;5063224;28;20512;-56
2022/05/06 00:53:54;;;;;;;2.25;2.05;;;;;;;16.44;100.00;96667.84;5063519;28;20083;-59
2022/05/06 00:56:24;;;;;;;1.90;1.80;;;;;;;16.68;100.00;96666.84;5065393;28;20082;-58
2022/05/06 00:58:54;;;;;;;1.70;1.60;;;;;;;16.77;100.00;96665.81;5061629;28;20075;-59
2022/05/06 01:01:22;;;;;;;1.70;1.60;;;;;;;16.42;100.00;96669.03;5053541;28;20084;-58
2022/05/06 01:03:53;;;;;;;1.70;1.60;;;;;;;16.37;100.00;96658.91;5063588;28;20140;-58
2022/05/06 01:06:22;;;;;;;1.77;1.67;;;;;;;16.20;100.00;96662.66;5062345;28;20515;-58
2022/05/06 01:08:50;;;;;;;1.70;1.60;;;;;;;16.51;100.00;96662.63;5064018;28;20163;-59
2022/05/06 01:11:19;;;;;;;1.55;1.40;;;;;;;16.22;100.00;96664.16;5057658;28;20079;-58
2022/05/06 01:13:49;;;;;;;1.60;1.50;;;;;;;16.75;100.00;96659.00;5062457;28;20116;-58
2022/05/06 01:16:17;;;;;;;1.70;1.60;;;;;;;16.46;100.00;96657.03;5063704;28;20072;-59
2022/05/06 01:18:47;;;;;;;1.70;1.60;;;;;;;16.70;100.00;96654.19;5064559;28;20092;-59
2022/05/06 01:21:20;;;;;;;2.65;1.58;;;;;;;16.57;100.00;96653.97;5060538;28;20071;-56
2022/05/06 01:23:50;;;;;;;1.95;1.85;;;;;;;16.50;100.00;96663.66;5061615;28;20072;-59
2022/05/06 01:26:18;;;;;;;2.03;1.83;;;;;;;16.55;100.00;96655.94;5060103;28;20068;-56
2022/05/06 01:28:46;;;;;;;1.80;1.70;;;;;;;16.09;100.00;96653.25;5061408;28;20064;-59
2022/05/06 01:31:20;;;;;;;2.85;1.80;;;;;;;16.35;100.00;96656.44;5065094;28;20101;-59
2022/05/06 01:33:54;;;;;;;1.80;1.70;;;;;;;16.57;100.00;96662.75;5058287;28;20660;-58
2022/05/06 01:36:25;;;;;;;1.70;1.60;;;;;;;16.80;100.00;96657.47;5062398;28;20044;-58
2022/05/06 01:38:57;;;;;;;1.80;1.70;;;;;;;16.74;100.00;96647.53;5061569;28;20064;-56
2022/05/06 01:41:27;;;;;;;1.80;1.70;;;;;;;16.83;100.00;96654.47;5063715;28;20067;-56
2022/05/06 01:43:58;;;;;;;1.83;1.73;;;;;;;16.88;100.00;96659.25;5060463;28;20071;-59
2022/05/06 01:46:26;;;;;;;;;;;;;;;16.99;100.00;96663.31;5062259;28;20085;-58
2022/05/06 01:48:56;;;;;;;3.00;1.90;;;;;;;16.90;100.00;96654.56;5062912;28;20033;-57
2022/05/06 01:51:24;;;;;;;2.00;1.80;;;;;;;16.66;100.00;96646.75;5061343;28;20067;-58
2022/05/06 01:53:53;;;;;;;1.80;1.70;;;;;;;16.55;100.00;96643.50;5060294;28;20036;-58
2022/05/06 01:56:22;;;;;;;2.20;1.95;;;;;;;16.45;100.00;96642.03;5063772;28;20078;-59
2022/05/06 01:58:51;;;;;;;2.08;1.88;;;;;;;16.35;100.00;96643.13;5059944;28;20056;-58
2022/05/06 02:01:19;;;;;;;1.80;1.70;;;;;;;16.29;100.00;96635.00;5058352;28;20741;-59
2022/05/06 02:06:33;;;;;;;2.47;1.88;;;;;;;16.47;100.00;96637.38;5041770;28;20519;-58
2022/05/06 02:09:01;;;;;;;1.80;1.70;;;;;;;16.60;100.00;96633.13;5058958;28;20072;-60
2022/05/06 02:11:31;;;;;;;2.15;1.80;;;;;;;16.83;100.00;96643.81;5059806;28;20074;-55
2022/05/06 02:13:59;;;;;;;1.77;1.67;;;;;;;16.58;100.00;96651.09;5063200;28;20067;-59
2022/05/06 02:16:28;;;;;;;2.15;1.90;;;;;;;16.42;100.00;96651.22;5060518;28;20080;-57
2022/05/06 02:18:57;;;;;;;1.77;1.67;;;;;;;16.78;100.00;96659.47;5061629;28;20044;-58
2022/05/06 02:21:25;;;;;;;2.38;2.00;;;;;;;16.77;100.00;96655.16;5061235;28;20506;-57
2022/05/06 02:23:54;;;;;;;2.00;1.90;;;;;;;17.06;100.00;96649.09;5058815;28;20068;-58
2022/05/06 02:26:22;;;;;;;2.05;1.95;;;;;;;16.74;100.00;96646.69;5058855;28;20075;-58
2022/05/06 02:28:52;;;;;;;2.08;1.90;;;;;;;16.59;100.00;96646.63;5058341;28;20071;-58
2022/05/06 02:34:06;;;;;;;2.30;2.10;;;;;;;16.90;100.00;96649.25;5058159;28;20509;-59
2022/05/06 02:36:34;;;;;;;2.58;2.10;;;;;;;16.98;100.00;96648.34;5061060;28;20064;-57
2022/05/06 02:39:02;;;;;;;2.10;2.00;;;;;;;17.00;100.00;96643.69;5058287;28;20060;-58
2022/05/06 02:41:30;;;;;;;2.00;1.90;;;;;;;16.94;100.00;96650.53;5061806;28;20064;-59
2022/05/06 02:44:02;;;;;;;1.80;1.70;;;;;;;17.09;100.00;96645.25;5060776;28;20064;-58
2022/05/06 02:46:30;;;;;;;2.20;2.00;;;;;;;17.20;100.00;96642.13;5058743;28;20080;-58
2022/05/06 02:48:58;;;;;;;2.13;2.00;;;;;;;17.15;100.00;96641.84;5060579;28;20072;-58
2022/05/06 02:51:28;;;;;;;2.28;2.08;;;;;;;17.24;100.00;96640.78;5058225;28;20063;-60
2022/05/06 02:53:57;;;;;;;2.35;2.05;;;;;;;17.25;100.00;96642.41;5057988;28;20095;-56
2022/05/06 02:56:25;;;;;;;2.40;2.20;;;;;;;17.19;100.00;96639.66;5062786;28;20064;-57
2022/05/06 02:58:53;;;;;;;3.47;2.00;;;;;;;17.28;100.00;96638.56;5065365;28;20060;-58
2022/05/06 03:01:24;;;;;;;1.90;1.80;;;;;;;17.34;100.00;96632.50;5065992;28;20075;-56
2022/05/06 03:03:53;;;;;;;2.20;2.00;;;;;;;17.34;100.00;96632.50;5064684;28;20087;-59
2022/05/06 03:06:21;;;;;;;1.90;1.80;;;;;;;17.15;100.00;96633.03;5064193;28;20554;-53
2022/05/06 03:08:49;;;;;;;2.50;2.30;;;;;;;16.80;100.00;96638.84;5063446;28;20060;-56
2022/05/06 03:11:18;;;;;;;3.22;2.30;;;;;;;17.16;100.00;96632.84;5062421;28;20076;-57
2022/05/06 03:13:46;;;;;;;2.55;2.35;;;;;;;17.13;100.00;96637.72;5064592;28;20052;-58
2022/05/06 03:16:14;;;;;;;2.40;2.20;;;;;;;17.07;100.00;96640.09;5062348;28;20072;-58
2022/05/06 03:18:44;;;;;;;4.25;2.20;;;;;;;16.70;100.00;96635.56;5060960;28;20641;-58
2022/05/06 03:21:12;;;;;;;2.67;2.47;;;;;;;16.63;100.00;96641.78;5062174;28;20113;-56
2022/05/06 03:23:41;;;;;;;2.15;2.00;;;;;;;16.33;100.00;96639.78;5060987;28;20064;-58
2022/05/06 03:26:09;;;;;;;2.28;2.08;;;;;;;16.61;100.00;96639.28;5061729;28;20060;-56
2022/05/06 03:28:37;;;;;;;2.53;2.33;;;;;;;16.16;100.00;96643.56;5065653;28;20079;-58
2022/05/06 03:31:06;;;;;;;2.47;2.28;;;;;;;16.45;100.00;96634.06;5068637;28;20075;-57
2022/05/06 03:33:35;;;;;;;2.45;2.25;;;;;;;16.08;100.00;96638.31;5067890;28;20072;-59
2022/05/06 03:36:05;;;;;;;2.92;2.38;;;;;;;16.32;100.00;96640.00;5058508;28;20063;-59
2022/05/06 03:38:34;;;;;;;2.70;2.30;;;;;;;16.16;100.00;96646.22;5071049;28;20064;-57
2022/05/06 03:41:02;;;;;;;3.92;2.40;;;;;;;16.31;100.00;96644.50;5069359;28;20071;-59
2022/05/06 03:43:30;;;;;;;2.95;2.65;;;;;;;16.20;100.00;96655.50;5070142;28;20084;-58
2022/05/06 03:45:59;;;;;;;3.33;2.58;;;;;;;16.24;100.00;96653.31;5068834;28;20066;-56
2022/05/06 03:48:27;;;;;;;4.75;2.80;;;;;;;15.38;100.00;96655.81;5057890;28;20056;-57
2022/05/06 03:53:43;;;;;;;4.43;2.70;;;;;;;15.86;100.00;96642.53;5065179;28;20066;-60
2022/05/06 03:56:11;;;;;;;3.60;2.70;;;;;;;15.70;100.00;96663.91;5067482;28;20068;-59
2022/05/06 03:58:40;;;;;;;2.97;2.60;;;;;;;16.22;100.00;96652.69;5065753;28;20072;-55
2022/05/06 04:01:08;;;;;;;4.07;2.75;;;;;;;16.00;100.00;96663.13;5069290;28;20091;-59
2022/05/06 04:03:38;;;;;;;5.78;2.88;;;;;;;15.66;100.00;96666.91;5072771;28;20438;-58
2022/05/06 04:06:06;;;;;;;5.33;2.90;;;;;;;15.68;100.00;96668.56;5065777;28;20056;-58
2022/05/06 04:08:35;;;;;;;5.25;2.85;;;;;;;15.82;100.00;96673.97;5057220;28;20486;-57
2022/05/06 04:11:04;;;;;;;5.78;3.10;;;;;;;16.11;100.00;96669.88;5062828;28;20068;-58
2022/05/06 04:13:32;;;;;;;3.25;2.90;;;;;;;16.12;100.00;96666.22;5065954;28;20060;-58
2022/05/06 04:16:01;;;;;;;3.75;3.15;;;;;;;15.97;100.00;96674.09;5061874;28;20079;-58
2022/05/06 04:18:30;;;;;;;4.82;2.83;;;;;;;16.06;100.00;96678.34;5063944;28;20078;-58
2022/05/06 04:23:44;;;;;;;5.57;3.22;;;;;;;15.95;100.00;96688.56;5063872;28;20056;-58
2022/05/06 04:26:13;;;;;;;3.42;3.13;;;;;;;15.80;100.00;96691.94;5064574;28;20071;-59
2022/05/06 04:28:43;;;;;;;4.70;3.22;;;;;;;15.74;100.00;96695.28;5061892;28;20456;-58
2022/05/06 04:31:12;;;;;;;4.93;3.53;;;;;;;16.01;100.00;96703.84;5060102;28;20115;-58
2022/05/06 04:33:42;;;;;;;4.05;3.53;;;;;;;15.61;100.00;96701.09;5061322;28;20068;-59
2022/05/06 04:36:10;;;;;;;11.35;6.50;;;;;;;15.88;100.00;96699.06;5061143;28;20068;-59
2022/05/06 04:38:38;;;;;;;3.85;3.45;;;;;;;15.57;100.00;96707.75;5055107;28;20468;-59
2022/05/06 04:41:06;;;;;;;5.50;3.55;;;;;;;15.84;100.00;96711.03;5062448;28;20043;-60
2022/05/06 04:43:36;;;;;;;7.20;3.80;;;;;;;15.75;100.00;96710.22;5054307;28;20449;-60
2022/05/06 04:46:04;;;;;;;4.68;3.65;;;;;;;15.88;100.00;96712.34;5067744;28;20087;-59
2022/05/06 04:48:32;;;;;;;6.30;3.95;;;;;;;16.00;100.00;96715.47;5057575;28;20068;-59
2022/05/06 04:51:01;;;;;;;3.88;3.47;;;;;;;16.23;100.00;96715.53;5064321;28;20076;-59
2022/05/06 04:53:29;;;;;;;4.22;3.60;;;;;;;16.12;100.00;96727.41;5054770;28;20553;-59
2022/05/06 04:55:57;;;;;;;4.28;3.75;;;;;;;16.27;100.00;96716.84;5060220;28;20069;-49
2022/05/06 04:58:28;;;;;;;4.22;3.72;;;;;;;16.22;100.00;96719.22;5067783;28;20091;-59
2022/05/06 05:01:02;;;;;;;3.63;3.33;;;;;;;15.61;100.00;96717.03;5063216;28;20095;-59
2022/05/06 05:03:30;;;;;;;4.10;3.70;;;;;;;15.18;100.00;96713.81;5051210;28;20502;-59
2022/05/06 05:05:58;;;;;;;7.43;3.67;;;;;;;15.24;100.00;96712.28;5055589;28;20060;-57
2022/05/06 05:08:26;;;;;;;6.15;4.15;;;;;;;15.50;100.00;96714.75;5049650;28;20069;-59
2022/05/06 05:11:02;;;;;;;4.97;3.78;;;;;;;15.73;100.00;96719.41;5062917;28;20065;-59
2022/05/06 05:13:32;;;;;;;4.70;3.83;;;;;;;15.79;100.00;96722.19;5076388;28;20079;-55
2022/05/06 05:16:02;;;;;;;4.78;3.80;;;;;;;15.44;100.00;96729.53;5057556;28;20076;-59
2022/05/06 05:18:31;;;;;;;7.23;4.10;;;;;;;15.64;100.00;96731.84;5053528;28;20076;-60
2022/05/06 05:20:59;;;;;;;5.43;4.05;;;;;;;15.97;100.00;96735.28;5067712;28;20067;-59
2022/05/06 05:23:29;;;;;;;5.75;4.18;;;;;;;15.91;100.00;96727.97;5065081;28;20072;-58
2022/05/06 05:25:57;;;;;;;8.25;4.93;;;;;;;16.12;100.00;96738.88;5059887;28;20519;-59
2022/05/06 05:28:26;;;;;;;5.40;4.40;;;;;;;16.10;100.00;96740.03;5075424;28;20076;-59
2022/05/06 05:30:54;;;;;;;7.47;5.03;;;;;;;16.17;100.00;96732.19;5065839;28;20072;-59
2022/05/06 05:33:24;;;;;;;5.80;4.65;;;;;;;16.15;100.00;96737.69;5056008;28;20068;-56
2022/05/06 05:35:52;;;;;;;6.22;5.15;;;;;;;16.08;100.00;96742.06;5059303;28;20301;-60
2022/05/06 05:38:20;;;;;;;7.57;5.13;;;;;;;16.18;100.00;96736.53;5059033;28;20071;-59
2022/05/06 05:40:48;;;;;;;6.35;5.50;;;;;;;16.22;100.00;96736.00;5061210;28;20075;-59
2022/05/06 05:48:46;;;;;;;7.15;5.55;;;;;;;15.93;100.00;96731.28;5058933;28;20535;-59
2022/05/06 05:51:14;;;;;;;10.40;7.97;;;;;;;15.63;100.00;96738.16;5053776;28;20068;-60
2022/05/06 05:53:42;;;;;;;11.85;8.27;;;;;;;15.49;100.00;96733.53;5073130;28;20097;-60
2022/05/06 05:56:11;;;;;;;9.52;8.43;;;;;;;15.63;100.00;96740.81;5063386;28;20079;-59
2022/05/06 05:58:39;;;;;;;11.32;8.52;;;;;;;15.64;100.00;96737.16;5065716;28;20064;-57
2022/05/06 06:01:08;;;;;;;10.38;8.65;;;;;;;15.72;100.00;96739.81;5057795;28;20091;-59
2022/05/06 06:03:36;;;;;;;9.48;7.50;;;;;;;15.63;100.00;96736.34;5073287;28;20080;-59
2022/05/06 06:06:06;;;;;;;9.73;7.45;;;;;;;15.27;100.00;96735.88;5055633;28;20076;-59
2022/05/06 06:08:35;;;;;;;9.15;7.22;;;;;;;15.32;100.00;96738.03;5056352;28;20099;-56
2022/05/06 06:11:04;;;;;;;12.93;8.38;;;;;;;15.55;100.00;96732.84;5051198;28;20060;-60
2022/05/06 06:13:32;;;;;;;10.32;7.88;;;;;;;15.53;100.00;96732.19;5068016;28;20545;-59
2022/05/06 06:16:00;;;;;;;12.02;9.10;;;;;;;15.43;100.00;96730.53;5061245;28;20084;-59
2022/05/06 06:18:29;;;;;;;14.77;10.93;;;;;;;15.46;100.00;96732.03;5062003;28;20154;-59
2022/05/06 06:20:57;;;;;;;12.63;10.05;;;;;;;15.65;100.00;96728.16;5057273;28;20450;-59
2022/05/06 06:23:27;;;;;;;15.25;11.40;;;;;;;15.89;100.00;96730.78;5055455;28;20076;-59
2022/05/06 06:25:58;;;;;;;13.23;11.20;;;;;;;15.48;100.00;96727.38;5061306;28;20154;-58
2022/05/06 06:28:26;;;;;;;14.48;12.10;;;;;;;15.56;100.00;96729.22;5063403;28;20103;-60
2022/05/06 06:30:54;;;;;;;14.25;11.70;;;;;;;15.42;100.00;96728.06;5064232;28;20092;-57
2022/05/06 06:33:23;;;;;;;15.77;11.68;;;;;;;15.64;100.00;96735.31;5065280;28;20550;-59
2022/05/06 06:35:51;;;;;;;16.33;13.45;;;;;;;15.82;100.00;96729.00;5071976;28;20075;-58
2022/05/06 06:38:19;;;;;;;17.98;14.50;;;;;;;15.73;100.00;96732.69;5063619;28;20523;-60
2022/05/06 06:40:49;;;;;;;18.30;15.40;;;;;;;15.99;100.00;96727.13;5058804;28;20068;-59
2022/05/06 06:43:17;;;;;;;18.20;15.48;;;;;;;15.93;100.00;96739.25;5064766;28;20087;-59
2022/05/06 06:45:45;;;;;;;20.95;15.90;;;;;;;15.98;100.00;96734.28;5052365;28;20088;-57
2022/05/06 06:48:13;;;;;;;21.15;16.23;;;;;;;16.01;100.00;96739.25;5068725;28;20087;-59
2022/05/06 06:50:41;;;;;;;19.98;15.68;;;;;;;15.90;100.00;96732.47;5052311;28;20057;-60
2022/05/06 06:53:10;;;;;;;18.80;16.08;;;;;;;16.09;100.00;96733.88;5056225;28;20060;-59
2022/05/06 06:55:38;;;;;;;21.20;16.13;;;;;;;16.17;100.00;96733.00;5058771;28;20063;-59
2022/05/06 06:58:08;;;;;;;18.63;16.15;;;;;;;16.15;100.00;96727.06;5074152;28;20087;-59
2022/05/06 07:00:37;;;;;;;21.38;17.27;;;;;;;16.30;100.00;96735.13;5066035;28;20065;-59
2022/05/06 07:03:06;;;;;;;21.77;18.20;;;;;;;16.30;100.00;96729.81;5077457;28;20075;-60
2022/05/06 07:05:34;;;;;;;21.77;18.23;;;;;;;15.98;100.00;96738.75;5071628;28;20068;-59
2022/05/06 07:13:48;;;;;;;26.15;21.10;;;;;;;16.19;100.00;96743.50;5069728;28;20071;-59
2022/05/06 07:16:16;;;;;;;23.17;20.17;;;;;;;16.12;100.00;96746.03;5058930;28;20087;-60
2022/05/06 07:18:44;;;;;;;23.08;20.08;;;;;;;16.09;100.00;96751.69;5069106;28;20369;-59
2022/05/06 07:21:13;;;;;;;21.83;19.42;;;;;;;16.05;100.00;96748.53;5065371;28;20064;-60
2022/05/06 07:23:41;;;;;;;22.92;20.00;;;;;;;16.31;100.00;96742.97;5057506;28;20068;-60
2022/05/06 07:26:09;;;;;;;26.08;20.35;;;;;;;15.94;100.00;96750.75;5064909;28;20056;-59
2022/05/06 07:28:38;;;;;;;24.85;20.75;;;;;;;16.09;100.00;96752.50;5067952;28;20060;-60
2022/05/06 07:31:07;;;;;;;24.80;21.77;;;;;;;16.15;100.00;96751.00;5061347;28;20083;-60
2022/05/06 07:33:36;;;;;;;26.43;22.20;;;;;;;16.03;100.00;96755.84;5055056;28;20281;-60
2022/05/06 07:36:04;;;;;;;24.88;21.10;;;;;;;15.74;100.00;96755.63;5058058;28;20087;-59
2022/05/06 07:38:33;;;;;;;26.95;22.40;;;;;;;15.90;100.00;96751.09;5063636;28;20101;-60
2022/05/06 07:41:03;;;;;;;27.80;22.58;;;;;;;16.17;100.00;96751.66;5054615;28;20068;-60
2022/05/06 07:43:31;;;;;;;26.70;20.90;;;;;;;16.01;100.00;96751.72;5066562;28;20087;-59
2022/05/06 07:46:18;;;;;;;25.38;21.60;;;;;;;16.19;100.00;96749.66;5059208;28;20129;-60
2022/05/06 07:48:47;;;;;;;25.77;22.25;;;;;;;16.37;100.00;96757.38;5058509;28;20051;-59
2022/05/06 07:51:15;;;;;;;27.70;22.42;;;;;;;16.27;100.00;96756.75;5063828;28;20482;-60
2022/05/06 07:53:44;;;;;;;25.67;22.02;;;;;;;16.16;100.00;96759.81;5058086;28;20068;-59
2022/05/06 07:56:13;;;;;;;26.10;21.80;;;;;;;16.46;100.00;96755.53;5057874;28;20064;-59
2022/05/06 07:58:41;;;;;;;28.90;23.23;;;;;;;16.42;100.00;96757.72;5072466;28;20079;-58
2022/05/06 08:01:11;;;;;;;27.20;21.02;;;;;;;16.13;100.00;96766.28;5062470;28;20069;-59
2022/05/06 08:06:26;;;;;;;25.27;20.55;;;;;;;16.27;100.00;96762.09;5050672;28;20069;-59
2022/05/06 08:08:54;;;;;;;27.42;21.38;;;;;;;16.04;100.00;96768.16;5058604;28;20068;-60
2022/05/06 08:11:23;;;;;;;25.83;21.38;;;;;;;16.12;100.00;96767.31;5065995;28;20068;-58
2022/05/06 08:13:52;;;;;;;27.55;22.58;;;;;;;16.24;100.00;96765.94;5063215;28;20064;-59
2022/05/06 08:16:20;;;;;;;25.65;20.80;;;;;;;16.43;100.00;96774.50;5067570;28;20088;-59
2022/05/06 08:18:50;;;;;;;26.42;21.17;;;;;;;16.52;100.00;96776.97;5069337;28;20091;-59
2022/05/06 08:21:19;;;;;;;25.38;21.75;;;;;;;16.72;100.00;96773.84;5052990;28;20064;-58
2022/05/06 08:23:49;;;;;;;27.13;21.35;;;;;;;16.72;100.00;96777.34;5058859;28;20475;-59
2022/05/06 08:26:17;;;;;;;26.17;21.67;;;;;;;16.53;100.00;96772.47;5067309;28;20076;-59
2022/05/06 08:28:46;;;;;;;25.70;21.00;;;;;;;16.27;100.00;96773.56;5068078;28;20075;-60
2022/05/06 08:31:14;;;;;;;25.85;20.25;;;;;;;16.18;100.00;96768.47;5069020;28;20068;-58
2022/05/06 08:33:50;;;;;;;22.90;20.45;;;;;;;16.38;100.00;96769.72;5056162;28;20472;-51
2022/05/06 08:36:19;;;;;;;25.70;20.60;;;;;;;16.21;100.00;96776.94;5063735;28;20626;-58
2022/05/06 08:38:48;;;;;;;23.52;19.05;;;;;;;15.92;100.00;96774.03;5055949;28;20072;-57
2022/05/06 08:41:17;;;;;;;28.00;21.13;;;;;;;16.35;100.00;96792.19;5068266;28;20075;-58
2022/05/06 08:43:45;;;;;;;27.75;20.90;;;;;;;16.45;100.00;96791.13;5075727;28;20083;-59
2022/05/06 08:51:50;;;;;;;24.33;20.42;;;;;;;17.07;100.00;96781.31;5065011;28;20087;-59
2022/05/06 08:54:18;;;;;;;23.13;19.87;;;;;;;17.27;100.00;96788.81;5055584;28;20068;-58
2022/05/06 08:56:47;;;;;;;24.60;20.73;;;;;;;17.67;100.00;96787.66;5069136;28;20475;-60
2022/05/06 08:59:15;;;;;;;24.73;19.50;;;;;;;17.41;100.00;96780.06;5072920;28;20076;-59
2022/05/06 09:01:43;;;;;;;22.70;18.73;;;;;;;17.42;100.00;96789.72;5050728;28;20057;-60
2022/05/06 09:04:13;;;;;;;21.48;17.58;;;;;;;16.93;100.00;96787.41;5054215;28;20094;-60
2022/05/06 09:06:41;;;;;;;22.07;18.50;;;;;;;16.92;100.00;96796.41;5060538;28;20072;-59
2022/05/06 09:09:17;;;;;;;22.50;19.70;;;;;;;16.95;100.00;96793.38;5066265;28;20080;-59
2022/05/06 09:17:34;;;;;;;24.95;19.58;;;;;;;17.34;100.00;96808.44;5064850;28;19959;-59
2022/05/06 09:20:09;;;;;;;23.98;18.85;;;;;;;17.30;100.00;96804.47;5062624;28;20563;-60
2022/05/06 09:22:37;;;;;;;22.25;19.77;;;;;;;17.36;100.00;96800.28;5063423;28;20068;-60
2022/05/06 09:25:06;;;;;;;22.20;19.02;;;;;;;17.16;100.00;96799.91;5076639;28;20071;-59
2022/05/06 09:27:34;;;;;;;25.38;20.92;;;;;;;17.16;100.00;96803.41;5068258;28;20069;-60
2022/05/06 09:30:08;;;;;;;25.52;20.65;;;;;;;17.22;100.00;96808.03;5067814;28;20075;-59
2022/05/06 09:32:37;;;;;;;21.77;18.83;;;;;;;17.02;100.00;96813.00;5066247;28;20519;-60
2022/05/06 09:35:13;;;;;;;25.98;20.42;;;;;;;16.86;100.00;96815.75;5056499;28;20064;-60
2022/05/06 09:37:43;;;;;;;22.30;19.90;;;;;;;16.77;100.00;96817.63;5051308;28;20462;-59
2022/05/06 09:40:13;;;;;;;26.27;21.93;;;;;;;16.69;100.00;96816.81;5059534;28;20068;-59
2022/05/06 09:42:43;;;;;;;23.48;20.75;;;;;;;16.57;100.00;96827.84;5061564;28;20071;-60
2022/05/06 09:45:13;;;;;;;25.00;21.17;;;;;;;16.71;100.00;96825.47;5061847;28;20064;-58
2022/05/06 09:47:42;;;;;;;27.05;22.15;;;;;;;16.94;100.00;96829.03;5054995;28;20060;-60
2022/05/06 09:50:12;;;;;;;25.73;21.85;;;;;;;17.16;100.00;96835.38;5067886;28;20080;-57
2022/05/06 09:52:41;;;;;;;28.60;22.20;;;;;;;16.84;100.00;96831.91;5074341;28;20071;-60
2022/05/06 09:55:09;;;;;;;26.60;21.63;;;;;;;16.91;100.00;96831.22;5069917;28;20095;-58
2022/05/06 09:57:38;;;;;;;27.52;21.58;;;;;;;17.06;100.00;96826.78;5073041;28;20040;-59
2022/05/06 10:00:07;;;;;;;24.70;21.98;;;;;;;17.32;100.00;96827.28;5067440;28;20068;-59
2022/05/06 10:02:37;;;;;;;28.67;23.75;;;;;;;17.32;100.00;96821.13;5061210;28;20553;-59
2022/05/06 10:05:08;;;;;;;27.10;23.27;;;;;;;17.46;100.00;96827.53;5061675;28;20553;-59
2022/05/06 10:07:42;;;;;;;27.00;23.08;;;;;;;17.65;100.00;96820.84;5080628;28;20072;-60
2022/05/06 10:10:16;;;;;;;25.83;21.88;;;;;;;17.48;100.00;96822.81;5066860;28;20119;-59
2022/05/06 10:12:53;;;;;;;25.92;22.08;;;;;;;17.57;100.00;96821.75;5072083;28;20033;-59
2022/05/06 10:15:24;;;;;;;26.73;21.58;;;;;;;17.92;100.00;96820.28;5069688;28;20080;-59
2022/05/06 10:17:57;;;;;;;25.85;22.13;;;;;;;18.14;100.00;96820.44;5061231;28;20061;-60
2022/05/06 10:20:59;;;;;;;25.13;20.95;;;;;;;17.32;100.00;96821.13;5062957;28;20534;-60
2022/05/06 10:23:44;;;;;;;24.33;20.30;;;;;;;17.14;100.00;96825.94;5065635;28;20067;-59
2022/05/06 10:26:40;;;;;;;25.42;20.63;;;;;;;16.82;100.00;96827.75;5058206;28;20064;-55
2022/05/06 10:35:12;;;;;;;25.42;20.90;;;;;;;17.35;100.00;96825.28;5070527;28;20075;-55
2022/05/06 10:37:44;;;;;;;22.37;18.40;;;;;;;16.58;100.00;96832.16;5007660;28;20061;-58
2022/05/06 10:40:38;;;;;;;21.00;18.35;;;;;;;16.74;100.00;96831.28;5055618;28;20072;-60
2022/05/06 10:43:06;;;;;;;20.63;17.27;;;;;;;16.67;100.00;96824.97;5046008;28;20409;-60
2022/05/06 10:45:35;;;;;;;24.75;18.77;;;;;;;16.77;100.00;96824.81;5063671;28;20079;-60
2022/05/06 10:48:22;;;;;;;26.23;20.42;;;;;;;16.96;100.00;96823.50;5071469;28;20063;-59
2022/05/06 10:50:50;;;;;;;33.17;28.73;;;;;;;17.86;100.00;96831.72;5071685;28;20072;-60
2022/05/06 10:53:35;;;;;;;22.48;19.00;;;;;;;17.18;100.00;96835.22;5064406;28;20061;-60
2022/05/06 10:56:04;;;;;;;20.40;17.02;;;;;;;16.42;100.00;96834.09;5052275;28;20059;-60
2022/05/06 10:58:33;;;;;;;21.38;17.08;;;;;;;16.90;100.00;96835.72;5069079;28;20076;-59
2022/05/06 11:01:01;;;;;;;19.65;17.55;;;;;;;17.36;100.00;96827.75;5064741;28;20092;-60
2022/05/06 11:03:30;;;;;;;22.27;19.83;;;;;;;17.54;100.00;96828.25;5062027;28;20080;-61
2022/05/06 11:05:58;;;;;;;22.65;17.52;;;;;;;17.21;100.00;96826.88;5051453;28;20072;-60
2022/05/06 11:08:33;;;;;;;21.52;18.58;;;;;;;17.41;100.00;96822.72;5057852;28;20060;-60
2022/05/06 11:11:01;;;;;;;22.88;19.30;;;;;;;17.79;100.00;96820.94;5058235;28;20052;-61
2022/05/06 11:13:35;;;;;;;20.80;18.60;;;;;;;17.69;100.00;96820.31;5060039;28;20080;-53
2022/05/06 11:16:09;;;;;;;21.90;18.07;;;;;;;17.76;100.00;96821.28;5066761;28;20083;-59
2022/05/06 11:18:43;;;;;;;18.92;15.75;;;;;;;17.06;100.00;96821.47;5067715;28;20496;-60
2022/05/06 11:21:22;;;;;;;23.55;18.10;;;;;;;16.98;100.00;96818.84;5064898;28;20523;-59
2022/05/06 11:23:51;;;;;;;19.63;16.30;;;;;;;16.75;100.00;96816.97;5054663;28;20417;-59
2022/05/06 11:26:26;;;;;;;19.83;15.18;;;;;;;16.51;100.00;96825.03;5064043;28;20592;-60
2022/05/06 11:29:03;;;;;;;26.17;21.63;;;;;;;16.93;100.00;96814.06;5068484;28;20071;-60
2022/05/06 11:31:31;;;;;;;26.23;19.33;;;;;;;17.34;100.00;96811.09;5069328;28;20111;-60
2022/05/06 11:34:04;;;;;;;19.65;16.98;;;;;;;17.29;100.00;96824.97;5070314;28;20091;-62
2022/05/06 11:36:33;;;;;;;102.40;59.78;;;;;;;17.86;100.00;96812.19;5053787;28;20057;-60
2022/05/06 11:39:11;;;;;;;37.83;27.58;;;;;;;18.60;100.00;96812.22;5067313;28;20083;-60
2022/05/06 11:41:39;;;;;;;45.05;30.23;;;;;;;18.23;100.00;96821.97;5068494;28;20095;-60
2022/05/06 11:44:10;;;;;;;23.85;19.77;;;;;;;18.30;100.00;96809.56;5071920;28;20057;-60
2022/05/06 11:49:39;;;;;;;26.73;22.30;;;;;;;18.63;100.00;96811.84;5063976;28;20056;-60
2022/05/06 11:52:08;;;;;;;24.42;18.92;;;;;;;18.83;100.00;96810.28;5067021;28;20447;-60
2022/05/06 11:54:37;;;;;;;21.05;17.65;;;;;;;18.64;100.00;96811.66;5061618;28;20075;-61
2022/05/06 11:57:05;;;;;;;19.90;16.27;;;;;;;18.33;100.00;96806.50;5066746;28;20541;-60
2022/05/06 11:59:35;;;;;;;20.48;17.27;;;;;;;19.13;100.00;96807.50;5072025;28;20080;-60
2022/05/06 12:02:06;;;;;;;16.85;15.07;;;;;;;19.16;100.00;96801.78;5056892;28;20068;-60
2022/05/06 12:04:35;;;;;;;18.85;14.43;;;;;;;18.83;100.00;96810.28;5063222;28;20084;-51
2022/05/06 12:07:03;;;;;;;19.77;16.15;;;;;;;19.10;100.00;96814.06;5057906;28;20091;-60
2022/05/06 12:09:42;;;;;;;19.10;15.82;;;;;;;19.09;100.00;96807.03;5066300;28;20110;-61
2022/05/06 12:12:11;;;;;;;17.85;15.88;;;;;;;18.79;100.00;96816.16;5059249;28;20462;-60
2022/05/06 12:14:41;;;;;;;17.48;15.50;;;;;;;18.78;100.00;96811.84;5077362;28;20117;-61